Terminal Aerodrome Forecast
Issued by NWS

Home | Current Version | Previous Version | Text Only | Print | Product List | Glossary On
Versions: 1 2 3 4 5 6 7 8 9 10 11 12 13 14 15 16 17 18 19 20 21 22 23 24 25 26 27 28
467
FTUS43 KLOT 281504 AAA
TAFMDW
TAF AMD
KMDW 281504Z 2815/2912 11006KT P6SM BKN080
     FM282100 09008KT P6SM -SHRA OVC035
     FM290200 05008KT 6SM BR SCT008 OVC012
     FM290900 04013G20KT 6SM BR OVC012=

USA.gov is the U.S. government's official web portal to all federal, state and local government web resources and services.